sensor_id;sensor_type;location;lat;lon;timestamp;temperature;humidity
27413;DHT22;14871;52.702;5.230;2022-09-09T00:10:19;19.80;99.90
27413;DHT22;14871;52.702;5.230;2022-09-09T00:15:40;19.60;99.90
27413;DHT22;14871;52.702;5.230;2022-09-09T00:21:07;19.60;99.90
27413;DHT22;14871;52.702;5.230;2022-09-09T00:23:38;19.50;99.90
27413;DHT22;14871;52.702;5.230;2022-09-09T00:31:34;19.70;99.90
27413;DHT22;14871;52.702;5.230;2022-09-09T00:34:25;19.50;99.90
27413;DHT22;14871;52.702;5.230;2022-09-09T00:36:52;19.50;99.90
27413;DHT22;14871;52.702;5.230;2022-09-09T00:39:37;19.50;99.90
27413;DHT22;14871;52.702;5.230;2022-09-09T00:42:15;19.40;99.90
27413;DHT22;14871;52.702;5.230;2022-09-09T00:47:40;19.50;99.90
27413;DHT22;14871;52.702;5.230;2022-09-09T00:50:17;19.40;99.90
27413;DHT22;14871;52.702;5.230;2022-09-09T00:58:15;19.40;99.90
27413;DHT22;14871;52.702;5.230;2022-09-09T01:00:45;19.30;99.90
27413;DHT22;14871;52.702;5.230;2022-09-09T01:16:52;19.20;99.90
27413;DHT22;14871;52.702;5.230;2022-09-09T01:22:36;19.40;99.90
27413;DHT22;14871;52.702;5.230;2022-09-09T01:27:30;19.20;99.90
27413;DHT22;14871;52.702;5.230;2022-09-09T01:29:57;19.30;99.90
27413;DHT22;14871;52.702;5.230;2022-09-09T01:32:47;19.30;99.90
27413;DHT22;14871;52.702;5.230;2022-09-09T01:38:24;19.30;99.90
27413;DHT22;14871;52.702;5.230;2022-09-09T01:40:51;19.30;99.90
27413;DHT22;14871;52.702;5.230;2022-09-09T01:43:21;19.20;99.90
27413;DHT22;14871;52.702;5.230;2022-09-09T01:45:50;19.20;99.90
27413;DHT22;14871;52.702;5.230;2022-09-09T01:48:19;19.10;99.90
27413;DHT22;14871;52.702;5.230;2022-09-09T01:50:45;19.20;99.90
27413;DHT22;14871;52.702;5.230;2022-09-09T01:53:11;19.30;99.90
27413;DHT22;14871;52.702;5.230;2022-09-09T01:55:41;19.30;99.90
27413;DHT22;14871;52.702;5.230;2022-09-09T02:00:41;19.10;99.90
27413;DHT22;14871;52.702;5.230;2022-09-09T02:03:19;19.20;99.90
27413;DHT22;14871;52.702;5.230;2022-09-09T02:05:51;19.10;99.90
27413;DHT22;14871;52.702;5.230;2022-09-09T02:08:26;18.80;99.90
27413;DHT22;14871;52.702;5.230;2022-09-09T02:11:15;19.10;99.90
27413;DHT22;14871;52.702;5.230;2022-09-09T02:13:43;18.90;99.90
27413;DHT22;14871;52.702;5.230;2022-09-09T02:21:44;18.90;99.90
27413;DHT22;14871;52.702;5.230;2022-09-09T02:24:12;19.00;99.90
27413;DHT22;14871;52.702;5.230;2022-09-09T02:26:41;18.90;99.90
27413;DHT22;14871;52.702;5.230;2022-09-09T02:29:18;18.90;99.90
27413;DHT22;14871;52.702;5.230;2022-09-09T02:31:46;19.00;99.90
27413;DHT22;14871;52.702;5.230;2022-09-09T02:34:13;19.00;99.90
27413;DHT22;14871;52.702;5.230;2022-09-09T02:36:42;18.90;99.90
27413;DHT22;14871;52.702;5.230;2022-09-09T02:39:09;19.00;99.90
27413;DHT22;14871;52.702;5.230;2022-09-09T02:41:37;18.90;99.90
27413;DHT22;14871;52.702;5.230;2022-09-09T02:44:15;18.90;99.90
27413;DHT22;14871;52.702;5.230;2022-09-09T02:47:07;18.80;99.90
27413;DHT22;14871;52.702;5.230;2022-09-09T02:50:02;18.80;99.90
27413;DHT22;14871;52.702;5.230;2022-09-09T02:55:23;18.80;99.90
27413;DHT22;14871;52.702;5.230;2022-09-09T02:57:52;18.80;99.90
27413;DHT22;14871;52.702;5.230;2022-09-09T03:00:24;18.70;99.90
27413;DHT22;14871;52.702;5.230;2022-09-09T03:02:50;18.80;99.90
27413;DHT22;14871;52.702;5.230;2022-09-09T03:05:16;18.80;99.90
27413;DHT22;14871;52.702;5.230;2022-09-09T03:07:43;18.70;99.90
27413;DHT22;14871;52.702;5.230;2022-09-09T03:10:09;18.70;99.90
27413;DHT22;14871;52.702;5.230;2022-09-09T03:12:35;18.50;99.90
27413;DHT22;14871;52.702;5.230;2022-09-09T03:15:01;18.50;99.90
27413;DHT22;14871;52.702;5.230;2022-09-09T03:17:26;18.50;99.90
27413;DHT22;14871;52.702;5.230;2022-09-09T03:19:53;18.70;99.90
27413;DHT22;14871;52.702;5.230;2022-09-09T03:22:20;18.70;99.90
27413;DHT22;14871;52.702;5.230;2022-09-09T03:24:46;18.80;99.90
27413;DHT22;14871;52.702;5.230;2022-09-09T03:27:12;18.80;99.90
27413;DHT22;14871;52.702;5.230;2022-09-09T03:29:40;18.70;99.90
27413;DHT22;14871;52.702;5.230;2022-09-09T03:32:05;18.80;99.90
27413;DHT22;14871;52.702;5.230;2022-09-09T03:34:31;18.80;99.90
27413;DHT22;14871;52.702;5.230;2022-09-09T03:36:57;18.80;99.90
27413;DHT22;14871;52.702;5.230;2022-09-09T03:39:23;18.80;99.90
27413;DHT22;14871;52.702;5.230;2022-09-09T03:41:48;18.90;99.90
27413;DHT22;14871;52.702;5.230;2022-09-09T03:44:14;18.80;99.90
27413;DHT22;14871;52.702;5.230;2022-09-09T03:46:40;18.80;99.90
27413;DHT22;14871;52.702;5.230;2022-09-09T03:49:05;18.60;99.90
27413;DHT22;14871;52.702;5.230;2022-09-09T03:51:31;18.60;99.90
27413;DHT22;14871;52.702;5.230;2022-09-09T03:53:56;18.70;99.90
27413;DHT22;14871;52.702;5.230;2022-09-09T03:56:23;18.60;99.90
27413;DHT22;14871;52.702;5.230;2022-09-09T03:58:49;18.50;99.90
27413;DHT22;14871;52.702;5.230;2022-09-09T04:01:15;18.60;99.90
27413;DHT22;14871;52.702;5.230;2022-09-09T04:03:43;18.50;99.90
27413;DHT22;14871;52.702;5.230;2022-09-09T04:06:14;18.40;99.90
27413;DHT22;14871;52.702;5.230;2022-09-09T04:08:40;18.50;99.90
27413;DHT22;14871;52.702;5.230;2022-09-09T04:11:07;18.50;99.90
27413;DHT22;14871;52.702;5.230;2022-09-09T04:13:34;18.60;99.90
27413;DHT22;14871;52.702;5.230;2022-09-09T04:16:01;18.70;99.90
27413;DHT22;14871;52.702;5.230;2022-09-09T04:18:27;18.70;99.90
27413;DHT22;14871;52.702;5.230;2022-09-09T04:20:56;18.70;99.90
27413;DHT22;14871;52.702;5.230;2022-09-09T04:23:24;18.60;99.90
27413;DHT22;14871;52.702;5.230;2022-09-09T04:25:54;18.40;99.90
27413;DHT22;14871;52.702;5.230;2022-09-09T04:28:22;18.40;99.90
27413;DHT22;14871;52.702;5.230;2022-09-09T04:30:48;18.30;99.90
27413;DHT22;14871;52.702;5.230;2022-09-09T04:33:14;18.40;99.90
27413;DHT22;14871;52.702;5.230;2022-09-09T04:35:48;18.40;99.90
27413;DHT22;14871;52.702;5.230;2022-09-09T04:38:15;18.40;99.90
27413;DHT22;14871;52.702;5.230;2022-09-09T04:40:47;18.20;99.90
27413;DHT22;14871;52.702;5.230;2022-09-09T04:43:13;18.30;99.90
27413;DHT22;14871;52.702;5.230;2022-09-09T04:45:40;18.20;99.90
27413;DHT22;14871;52.702;5.230;2022-09-09T04:48:07;18.10;99.90
27413;DHT22;14871;52.702;5.230;2022-09-09T04:50:33;18.10;99.90
27413;DHT22;14871;52.702;5.230;2022-09-09T04:53:03;18.10;99.90
27413;DHT22;14871;52.702;5.230;2022-09-09T04:55:30;17.90;99.90
27413;DHT22;14871;52.702;5.230;2022-09-09T04:57:56;18.10;99.90
27413;DHT22;14871;52.702;5.230;2022-09-09T05:00:23;18.30;99.90
27413;DHT22;14871;52.702;5.230;2022-09-09T05:02:49;18.10;99.90
27413;DHT22;14871;52.702;5.230;2022-09-09T05:05:14;18.20;99.90
27413;DHT22;14871;52.702;5.230;2022-09-09T05:07:40;18.00;99.90
27413;DHT22;14871;52.702;5.230;2022-09-09T05:10:07;18.10;99.90
27413;DHT22;14871;52.702;5.230;2022-09-09T05:12:33;18.10;99.90
27413;DHT22;14871;52.702;5.230;2022-09-09T05:14:58;18.00;99.90
27413;DHT22;14871;52.702;5.230;2022-09-09T05:17:24;18.00;99.90
27413;DHT22;14871;52.702;5.230;2022-09-09T05:19:49;18.30;99.90
27413;DHT22;14871;52.702;5.230;2022-09-09T05:22:21;18.20;99.90
27413;DHT22;14871;52.702;5.230;2022-09-09T05:24:49;18.10;99.90
27413;DHT22;14871;52.702;5.230;2022-09-09T05:27:17;17.90;99.90
27413;DHT22;14871;52.702;5.230;2022-09-09T05:29:43;18.00;99.90
27413;DHT22;14871;52.702;5.230;2022-09-09T05:32:10;18.00;99.90
27413;DHT22;14871;52.702;5.230;2022-09-09T05:34:35;18.10;99.90
27413;DHT22;14871;52.702;5.230;2022-09-09T05:37:03;17.80;99.90
27413;DHT22;14871;52.702;5.230;2022-09-09T05:39:29;18.00;99.90
27413;DHT22;14871;52.702;5.230;2022-09-09T05:41:55;18.00;99.90
27413;DHT22;14871;52.702;5.230;2022-09-09T05:44:21;18.00;99.90
27413;DHT22;14871;52.702;5.230;2022-09-09T05:46:49;17.90;99.90
27413;DHT22;14871;52.702;5.230;2022-09-09T05:49:14;18.00;99.90
27413;DHT22;14871;52.702;5.230;2022-09-09T05:51:41;17.80;99.90
27413;DHT22;14871;52.702;5.230;2022-09-09T05:54:08;17.80;99.90
27413;DHT22;14871;52.702;5.230;2022-09-09T05:56:34;17.80;99.90
27413;DHT22;14871;52.702;5.230;2022-09-09T05:59:01;17.80;99.90
27413;DHT22;14871;52.702;5.230;2022-09-09T06:01:29;17.60;99.90
27413;DHT22;14871;52.702;5.230;2022-09-09T06:03:56;17.60;99.90
27413;DHT22;14871;52.702;5.230;2022-09-09T06:06:27;17.90;99.90
27413;DHT22;14871;52.702;5.230;2022-09-09T06:08:57;17.80;99.90
27413;DHT22;14871;52.702;5.230;2022-09-09T06:11:26;17.80;99.90
27413;DHT22;14871;52.702;5.230;2022-09-09T06:13:52;17.80;99.90
27413;DHT22;14871;52.702;5.230;2022-09-09T06:16:23;17.80;99.90
27413;DHT22;14871;52.702;5.230;2022-09-09T06:18:50;18.00;99.90
27413;DHT22;14871;52.702;5.230;2022-09-09T06:21:20;18.00;99.90
27413;DHT22;14871;52.702;5.230;2022-09-09T06:23:46;18.00;99.90
27413;DHT22;14871;52.702;5.230;2022-09-09T06:26:15;17.90;99.90
27413;DHT22;14871;52.702;5.230;2022-09-09T06:28:44;17.90;99.90
27413;DHT22;14871;52.702;5.230;2022-09-09T06:31:12;18.10;99.90
27413;DHT22;14871;52.702;5.230;2022-09-09T06:33:39;18.40;99.90
27413;DHT22;14871;52.702;5.230;2022-09-09T06:36:14;18.20;99.90
27413;DHT22;14871;52.702;5.230;2022-09-09T06:38:40;18.50;99.90
27413;DHT22;14871;52.702;5.230;2022-09-09T06:41:06;18.30;99.90
27413;DHT22;14871;52.702;5.230;2022-09-09T06:43:32;18.20;99.90
27413;DHT22;14871;52.702;5.230;2022-09-09T06:46:03;18.00;99.90
27413;DHT22;14871;52.702;5.230;2022-09-09T06:48:29;18.00;99.90
27413;DHT22;14871;52.702;5.230;2022-09-09T06:53:30;18.40;99.90
27413;DHT22;14871;52.702;5.230;2022-09-09T06:55:56;18.30;99.90
27413;DHT22;14871;52.702;5.230;2022-09-09T06:58:22;18.30;99.90
27413;DHT22;14871;52.702;5.230;2022-09-09T07:00:47;18.30;99.90
27413;DHT22;14871;52.702;5.230;2022-09-09T07:03:13;18.20;99.90
27413;DHT22;14871;52.702;5.230;2022-09-09T07:05:39;18.30;99.90
27413;DHT22;14871;52.702;5.230;2022-09-09T07:08:04;18.40;99.90
27413;DHT22;14871;52.702;5.230;2022-09-09T07:10:31;18.60;99.90
27413;DHT22;14871;52.702;5.230;2022-09-09T07:12:57;18.80;99.90
27413;DHT22;14871;52.702;5.230;2022-09-09T07:15:22;18.80;99.90
27413;DHT22;14871;52.702;5.230;2022-09-09T07:17:48;18.90;99.90
27413;DHT22;14871;52.702;5.230;2022-09-09T07:20:14;18.90;99.90
27413;DHT22;14871;52.702;5.230;2022-09-09T07:22:41;19.10;99.90
27413;DHT22;14871;52.702;5.230;2022-09-09T07:25:07;19.00;99.90
27413;DHT22;14871;52.702;5.230;2022-09-09T07:27:33;18.80;99.90
27413;DHT22;14871;52.702;5.230;2022-09-09T07:29:59;18.90;99.90
27413;DHT22;14871;52.702;5.230;2022-09-09T07:32:24;18.90;99.90
27413;DHT22;14871;52.702;5.230;2022-09-09T07:34:51;19.10;99.90
27413;DHT22;14871;52.702;5.230;2022-09-09T07:37:16;19.00;99.90
27413;DHT22;14871;52.702;5.230;2022-09-09T07:39:42;19.00;99.90
27413;DHT22;14871;52.702;5.230;2022-09-09T07:42:08;19.00;99.90
27413;DHT22;14871;52.702;5.230;2022-09-09T07:44:36;19.20;99.90
27413;DHT22;14871;52.702;5.230;2022-09-09T07:47:05;19.30;99.90
27413;DHT22;14871;52.702;5.230;2022-09-09T07:49:30;19.30;99.90
27413;DHT22;14871;52.702;5.230;2022-09-09T07:51:57;19.40;99.90
27413;DHT22;14871;52.702;5.230;2022-09-09T07:54:23;19.50;99.90
27413;DHT22;14871;52.702;5.230;2022-09-09T07:56:50;19.40;99.90
27413;DHT22;14871;52.702;5.230;2022-09-09T07:59:16;19.50;99.90
27413;DHT22;14871;52.702;5.230;2022-09-09T08:01:45;19.50;99.90
27413;DHT22;14871;52.702;5.230;2022-09-09T08:04:16;19.50;99.90
27413;DHT22;14871;52.702;5.230;2022-09-09T08:06:51;19.40;99.90
27413;DHT22;14871;52.702;5.230;2022-09-09T08:09:18;19.50;99.90
27413;DHT22;14871;52.702;5.230;2022-09-09T08:11:44;19.40;99.90
27413;DHT22;14871;52.702;5.230;2022-09-09T08:14:11;19.50;99.90
27413;DHT22;14871;52.702;5.230;2022-09-09T08:16:39;19.50;99.90
27413;DHT22;14871;52.702;5.230;2022-09-09T08:19:06;19.50;99.90
27413;DHT22;14871;52.702;5.230;2022-09-09T08:21:33;19.60;99.90
27413;DHT22;14871;52.702;5.230;2022-09-09T08:24:00;19.50;99.90
27413;DHT22;14871;52.702;5.230;2022-09-09T08:26:31;19.50;99.90
27413;DHT22;14871;52.702;5.230;2022-09-09T08:28:59;19.60;99.90
27413;DHT22;14871;52.702;5.230;2022-09-09T08:31:33;19.60;99.90
27413;DHT22;14871;52.702;5.230;2022-09-09T08:33:59;19.60;99.90
27413;DHT22;14871;52.702;5.230;2022-09-09T08:36:27;19.80;99.90
27413;DHT22;14871;52.702;5.230;2022-09-09T08:38:56;19.60;99.90
27413;DHT22;14871;52.702;5.230;2022-09-09T08:52:30;19.40;99.90
27413;DHT22;14871;52.702;5.230;2022-09-09T08:55:26;19.40;99.90
27413;DHT22;14871;52.702;5.230;2022-09-09T08:57:52;19.30;99.90
27413;DHT22;14871;52.702;5.230;2022-09-09T09:00:19;19.50;99.90
27413;DHT22;14871;52.702;5.230;2022-09-09T09:03:06;19.50;99.90
27413;DHT22;14871;52.702;5.230;2022-09-09T09:08:43;19.70;99.90
27413;DHT22;14871;52.702;5.230;2022-09-09T09:11:13;19.60;99.90
27413;DHT22;14871;52.702;5.230;2022-09-09T09:13:59;19.70;99.90
27413;DHT22;14871;52.702;5.230;2022-09-09T09:16:37;19.70;99.90
27413;DHT22;14871;52.702;5.230;2022-09-09T09:19:04;19.70;99.90
27413;DHT22;14871;52.702;5.230;2022-09-09T09:21:44;19.70;99.90
27413;DHT22;14871;52.702;5.230;2022-09-09T09:27:14;19.80;99.90
27413;DHT22;14871;52.702;5.230;2022-09-09T09:29:41;19.80;99.90
27413;DHT22;14871;52.702;5.230;2022-09-09T09:32:13;19.90;99.90
27413;DHT22;14871;52.702;5.230;2022-09-09T09:34:39;19.90;99.90
27413;DHT22;14871;52.702;5.230;2022-09-09T09:37:21;20.10;99.90
27413;DHT22;14871;52.702;5.230;2022-09-09T09:39:49;20.20;99.90
27413;DHT22;14871;52.702;5.230;2022-09-09T09:42:17;20.30;99.90
27413;DHT22;14871;52.702;5.230;2022-09-09T09:44:43;20.40;99.60
27413;DHT22;14871;52.702;5.230;2022-09-09T09:47:14;20.40;99.60
27413;DHT22;14871;52.702;5.230;2022-09-09T09:50:00;20.70;99.10
27413;DHT22;14871;52.702;5.230;2022-09-09T09:52:29;20.50;98.60
27413;DHT22;14871;52.702;5.230;2022-09-09T09:54:57;20.40;99.10
27413;DHT22;14871;52.702;5.230;2022-09-09T09:57:29;20.40;99.10
27413;DHT22;14871;52.702;5.230;2022-09-09T10:00:25;20.30;99.40
27413;DHT22;14871;52.702;5.230;2022-09-09T10:02:50;20.10;99.60
27413;DHT22;14871;52.702;5.230;2022-09-09T10:05:23;20.00;99.90
27413;DHT22;14871;52.702;5.230;2022-09-09T10:08:11;20.00;99.90
27413;DHT22;14871;52.702;5.230;2022-09-09T10:13:15;19.90;99.90
27413;DHT22;14871;52.702;5.230;2022-09-09T10:15:57;19.80;99.90
27413;DHT22;14871;52.702;5.230;2022-09-09T10:24:13;20.10;99.90
27413;DHT22;14871;52.702;5.230;2022-09-09T10:29:52;19.80;99.90
27413;DHT22;14871;52.702;5.230;2022-09-09T10:32:41;19.80;99.90
27413;DHT22;14871;52.702;5.230;2022-09-09T10:38:15;19.80;99.90
27413;DHT22;14871;52.702;5.230;2022-09-09T10:51:40;19.90;99.90
27413;DHT22;14871;52.702;5.230;2022-09-09T10:54:27;19.80;99.90
27413;DHT22;14871;52.702;5.230;2022-09-09T10:57:13;19.80;99.90
27413;DHT22;14871;52.702;5.230;2022-09-09T10:59:46;19.80;99.90
27413;DHT22;14871;52.702;5.230;2022-09-09T11:02:19;19.90;99.90
27413;DHT22;14871;52.702;5.230;2022-09-09T11:05:05;19.90;99.90
27413;DHT22;14871;52.702;5.230;2022-09-09T11:07:51;20.10;99.90
27413;DHT22;14871;52.702;5.230;2022-09-09T11:12:51;20.10;99.90
27413;DHT22;14871;52.702;5.230;2022-09-09T11:15:24;19.90;99.90
27413;DHT22;14871;52.702;5.230;2022-09-09T11:17:55;20.10;99.90
27413;DHT22;14871;52.702;5.230;2022-09-09T11:20:22;20.10;99.90
27413;DHT22;14871;52.702;5.230;2022-09-09T11:23:03;20.20;99.90
27413;DHT22;14871;52.702;5.230;2022-09-09T11:25:39;20.30;99.90
27413;DHT22;14871;52.702;5.230;2022-09-09T11:38:49;20.60;99.90
27413;DHT22;14871;52.702;5.230;2022-09-09T11:41:17;20.40;99.90
27413;DHT22;14871;52.702;5.230;2022-09-09T11:43:47;20.40;99.90
27413;DHT22;14871;52.702;5.230;2022-09-09T11:46:15;20.40;99.90
27413;DHT22;14871;52.702;5.230;2022-09-09T11:48:44;20.40;99.90
27413;DHT22;14871;52.702;5.230;2022-09-09T11:51:27;20.60;99.90
27413;DHT22;14871;52.702;5.230;2022-09-09T11:53:58;20.90;99.80
27413;DHT22;14871;52.702;5.230;2022-09-09T11:56:30;21.00;99.50
27413;DHT22;14871;52.702;5.230;2022-09-09T12:01:41;21.20;98.70
27413;DHT22;14871;52.702;5.230;2022-09-09T12:04:15;21.20;98.50
27413;DHT22;14871;52.702;5.230;2022-09-09T12:06:45;21.20;98.20
27413;DHT22;14871;52.702;5.230;2022-09-09T12:09:43;21.00;98.70
27413;DHT22;14871;52.702;5.230;2022-09-09T12:17:22;21.10;99.00
27413;DHT22;14871;52.702;5.230;2022-09-09T12:19:59;20.90;99.60
27413;DHT22;14871;52.702;5.230;2022-09-09T12:25:29;21.00;99.40
27413;DHT22;14871;52.702;5.230;2022-09-09T12:28:05;20.80;99.90
27413;DHT22;14871;52.702;5.230;2022-09-09T12:31:02;21.00;99.10
27413;DHT22;14871;52.702;5.230;2022-09-09T12:33:38;21.00;98.70
27413;DHT22;14871;52.702;5.230;2022-09-09T12:36:12;21.10;98.70
27413;DHT22;14871;52.702;5.230;2022-09-09T12:38:40;21.30;98.80
27413;DHT22;14871;52.702;5.230;2022-09-09T12:41:15;21.50;98.60
27413;DHT22;14871;52.702;5.230;2022-09-09T12:43:44;21.60;98.40
27413;DHT22;14871;52.702;5.230;2022-09-09T12:46:22;21.60;98.70
27413;DHT22;14871;52.702;5.230;2022-09-09T12:48:50;22.10;97.90
27413;DHT22;14871;52.702;5.230;2022-09-09T12:51:24;22.00;97.70
27413;DHT22;14871;52.702;5.230;2022-09-09T12:53:51;22.00;97.50
27413;DHT22;14871;52.702;5.230;2022-09-09T12:56:22;21.80;97.30
27413;DHT22;14871;52.702;5.230;2022-09-09T12:58:51;21.40;97.90
27413;DHT22;14871;52.702;5.230;2022-09-09T13:01:22;21.20;99.40
27413;DHT22;14871;52.702;5.230;2022-09-09T13:03:48;21.20;99.90
27413;DHT22;14871;52.702;5.230;2022-09-09T13:06:23;20.90;99.90
27413;DHT22;14871;52.702;5.230;2022-09-09T13:08:52;20.90;99.90
27413;DHT22;14871;52.702;5.230;2022-09-09T13:11:42;20.40;99.90
27413;DHT22;14871;52.702;5.230;2022-09-09T13:14:23;20.30;99.90
27413;DHT22;14871;52.702;5.230;2022-09-09T13:16:58;20.30;99.90
27413;DHT22;14871;52.702;5.230;2022-09-09T13:19:24;20.30;99.90
27413;DHT22;14871;52.702;5.230;2022-09-09T13:21:54;20.20;99.90
27413;DHT22;14871;52.702;5.230;2022-09-09T13:24:27;19.90;99.90
27413;DHT22;14871;52.702;5.230;2022-09-09T13:27:21;20.00;99.90
27413;DHT22;14871;52.702;5.230;2022-09-09T13:29:53;20.10;99.90
27413;DHT22;14871;52.702;5.230;2022-09-09T13:32:23;20.20;99.90
27413;DHT22;14871;52.702;5.230;2022-09-09T13:34:57;20.20;99.90
27413;DHT22;14871;52.702;5.230;2022-09-09T13:39:54;20.10;99.90
27413;DHT22;14871;52.702;5.230;2022-09-09T13:42:25;20.30;99.90
27413;DHT22;14871;52.702;5.230;2022-09-09T13:44:51;20.40;99.90
27413;DHT22;14871;52.702;5.230;2022-09-09T13:47:29;20.40;99.90
27413;DHT22;14871;52.702;5.230;2022-09-09T13:49:55;20.50;99.90
27413;DHT22;14871;52.702;5.230;2022-09-09T13:52:21;20.40;99.90
27413;DHT22;14871;52.702;5.230;2022-09-09T13:54:51;20.30;99.90
27413;DHT22;14871;52.702;5.230;2022-09-09T13:57:18;20.60;99.90
27413;DHT22;14871;52.702;5.230;2022-09-09T13:59:45;20.50;99.90
27413;DHT22;14871;52.702;5.230;2022-09-09T14:02:11;20.60;99.90
27413;DHT22;14871;52.702;5.230;2022-09-09T14:04:36;20.90;99.90
27413;DHT22;14871;52.702;5.230;2022-09-09T14:07:02;21.00;99.90
27413;DHT22;14871;52.702;5.230;2022-09-09T14:09:28;21.10;99.90
27413;DHT22;14871;52.702;5.230;2022-09-09T14:11:53;21.30;99.90
27413;DHT22;14871;52.702;5.230;2022-09-09T14:14:20;21.40;99.90
27413;DHT22;14871;52.702;5.230;2022-09-09T14:16:46;21.60;99.90
27413;DHT22;14871;52.702;5.230;2022-09-09T14:19:12;21.90;99.90
27413;DHT22;14871;52.702;5.230;2022-09-09T14:21:38;22.20;99.90
27413;DHT22;14871;52.702;5.230;2022-09-09T14:24:04;22.30;99.90
27413;DHT22;14871;52.702;5.230;2022-09-09T14:26:30;22.10;99.90
27413;DHT22;14871;52.702;5.230;2022-09-09T14:28:56;21.80;99.90
27413;DHT22;14871;52.702;5.230;2022-09-09T14:31:23;21.80;99.90
27413;DHT22;14871;52.702;5.230;2022-09-09T14:33:49;21.60;99.90
27413;DHT22;14871;52.702;5.230;2022-09-09T14:36:16;21.60;99.90
27413;DHT22;14871;52.702;5.230;2022-09-09T14:38:41;21.50;99.90
27413;DHT22;14871;52.702;5.230;2022-09-09T14:41:13;21.50;99.90
27413;DHT22;14871;52.702;5.230;2022-09-09T14:43:40;21.50;99.90
27413;DHT22;14871;52.702;5.230;2022-09-09T14:46:07;21.60;99.90
27413;DHT22;14871;52.702;5.230;2022-09-09T14:48:34;21.60;99.90
27413;DHT22;14871;52.702;5.230;2022-09-09T14:51:20;21.50;99.90
27413;DHT22;14871;52.702;5.230;2022-09-09T14:53:48;21.40;99.90
27413;DHT22;14871;52.702;5.230;2022-09-09T14:56:16;21.40;99.90
27413;DHT22;14871;52.702;5.230;2022-09-09T14:58:42;21.20;99.90
27413;DHT22;14871;52.702;5.230;2022-09-09T15:01:10;21.20;99.90
27413;DHT22;14871;52.702;5.230;2022-09-09T15:03:37;21.20;99.90
27413;DHT22;14871;52.702;5.230;2022-09-09T15:06:10;21.20;99.90
27413;DHT22;14871;52.702;5.230;2022-09-09T15:08:37;21.30;99.90
27413;DHT22;14871;52.702;5.230;2022-09-09T15:11:04;21.30;99.90
27413;DHT22;14871;52.702;5.230;2022-09-09T15:13:30;21.40;99.90
27413;DHT22;14871;52.702;5.230;2022-09-09T15:15:56;21.30;99.90
27413;DHT22;14871;52.702;5.230;2022-09-09T15:18:23;21.40;99.90
27413;DHT22;14871;52.702;5.230;2022-09-09T15:20:49;21.40;99.90
27413;DHT22;14871;52.702;5.230;2022-09-09T15:23:15;21.50;99.90
27413;DHT22;14871;52.702;5.230;2022-09-09T15:25:55;21.50;99.90
27413;DHT22;14871;52.702;5.230;2022-09-09T15:28:22;21.60;99.90
27413;DHT22;14871;52.702;5.230;2022-09-09T15:30:52;21.50;99.90
27413;DHT22;14871;52.702;5.230;2022-09-09T15:33:19;21.60;99.90
27413;DHT22;14871;52.702;5.230;2022-09-09T15:35:45;21.60;99.90
27413;DHT22;14871;52.702;5.230;2022-09-09T15:38:11;21.50;99.90
27413;DHT22;14871;52.702;5.230;2022-09-09T15:40:41;21.40;99.90
27413;DHT22;14871;52.702;5.230;2022-09-09T15:43:07;21.30;99.90
27413;DHT22;14871;52.702;5.230;2022-09-09T15:45:35;21.40;99.90
27413;DHT22;14871;52.702;5.230;2022-09-09T15:48:01;21.20;99.90
27413;DHT22;14871;52.702;5.230;2022-09-09T15:50:27;21.30;99.90
27413;DHT22;14871;52.702;5.230;2022-09-09T15:52:53;21.30;99.90
27413;DHT22;14871;52.702;5.230;2022-09-09T15:55:19;21.20;99.90
27413;DHT22;14871;52.702;5.230;2022-09-09T15:57:51;21.30;99.90
27413;DHT22;14871;52.702;5.230;2022-09-09T16:00:19;21.20;99.90
27413;DHT22;14871;52.702;5.230;2022-09-09T16:02:46;21.20;99.90
27413;DHT22;14871;52.702;5.230;2022-09-09T16:05:12;21.20;99.90
27413;DHT22;14871;52.702;5.230;2022-09-09T16:07:37;21.20;99.90
27413;DHT22;14871;52.702;5.230;2022-09-09T16:10:03;21.20;99.90
27413;DHT22;14871;52.702;5.230;2022-09-09T16:12:29;21.20;99.90
27413;DHT22;14871;52.702;5.230;2022-09-09T16:14:54;21.20;99.90
27413;DHT22;14871;52.702;5.230;2022-09-09T16:17:21;21.20;99.90
27413;DHT22;14871;52.702;5.230;2022-09-09T16:19:46;21.20;99.90
27413;DHT22;14871;52.702;5.230;2022-09-09T16:22:12;21.20;99.90
27413;DHT22;14871;52.702;5.230;2022-09-09T16:24:40;21.20;99.90
27413;DHT22;14871;52.702;5.230;2022-09-09T16:27:06;21.30;99.90
27413;DHT22;14871;52.702;5.230;2022-09-09T16:29:32;21.20;99.90
27413;DHT22;14871;52.702;5.230;2022-09-09T16:31:57;21.30;99.90
27413;DHT22;14871;52.702;5.230;2022-09-09T16:34:24;21.20;99.90
27413;DHT22;14871;52.702;5.230;2022-09-09T16:36:50;21.20;99.90
27413;DHT22;14871;52.702;5.230;2022-09-09T16:39:18;21.00;99.90
27413;DHT22;14871;52.702;5.230;2022-09-09T16:41:45;21.10;99.90
27413;DHT22;14871;52.702;5.230;2022-09-09T16:44:13;21.10;99.50
27413;DHT22;14871;52.702;5.230;2022-09-09T16:46:42;21.00;99.50
27413;DHT22;14871;52.702;5.230;2022-09-09T16:49:10;21.00;99.10
27413;DHT22;14871;52.702;5.230;2022-09-09T16:51:44;21.00;99.30
27413;DHT22;14871;52.702;5.230;2022-09-09T16:54:10;21.00;99.20
27413;DHT22;14871;52.702;5.230;2022-09-09T16:56:41;20.90;99.40
27413;DHT22;14871;52.702;5.230;2022-09-09T16:59:10;20.90;99.50
27413;DHT22;14871;52.702;5.230;2022-09-09T17:01:38;20.80;99.90
27413;DHT22;14871;52.702;5.230;2022-09-09T17:04:11;20.80;99.90
27413;DHT22;14871;52.702;5.230;2022-09-09T17:06:38;20.60;99.90
27413;DHT22;14871;52.702;5.230;2022-09-09T17:09:09;20.50;99.90
27413;DHT22;14871;52.702;5.230;2022-09-09T17:11:37;20.50;99.90
27413;DHT22;14871;52.702;5.230;2022-09-09T17:14:03;20.40;99.90
27413;DHT22;14871;52.702;5.230;2022-09-09T17:16:31;20.20;99.90
27413;DHT22;14871;52.702;5.230;2022-09-09T17:18:59;20.30;99.90
27413;DHT22;14871;52.702;5.230;2022-09-09T17:21:27;20.10;99.90
27413;DHT22;14871;52.702;5.230;2022-09-09T17:23:54;20.30;99.90
27413;DHT22;14871;52.702;5.230;2022-09-09T17:26:22;20.30;99.90
27413;DHT22;14871;52.702;5.230;2022-09-09T17:28:48;20.40;99.90
27413;DHT22;14871;52.702;5.230;2022-09-09T17:31:16;20.20;99.90
27413;DHT22;14871;52.702;5.230;2022-09-09T17:33:45;20.10;99.90
27413;DHT22;14871;52.702;5.230;2022-09-09T17:36:28;20.20;99.90
27413;DHT22;14871;52.702;5.230;2022-09-09T17:38:55;20.30;99.90
27413;DHT22;14871;52.702;5.230;2022-09-09T17:41:24;20.30;99.90
27413;DHT22;14871;52.702;5.230;2022-09-09T17:43:50;20.40;99.90
27413;DHT22;14871;52.702;5.230;2022-09-09T17:46:22;20.40;99.90
27413;DHT22;14871;52.702;5.230;2022-09-09T17:48:50;20.40;99.90
27413;DHT22;14871;52.702;5.230;2022-09-09T17:51:20;20.30;99.90
27413;DHT22;14871;52.702;5.230;2022-09-09T17:53:51;20.30;99.90
27413;DHT22;14871;52.702;5.230;2022-09-09T17:56:19;20.30;99.90
27413;DHT22;14871;52.702;5.230;2022-09-09T17:58:48;20.20;99.90